createdAt,value
2019-05-20T00:01:48.719Z,7.70
2019-05-20T00:04:18.102Z,8.40
2019-05-20T00:06:47.466Z,8.70
2019-05-20T00:09:16.911Z,8.57
2019-05-20T00:11:46.459Z,9.13
2019-05-20T00:14:15.840Z,9.10
2019-05-20T00:16:45.222Z,8.87
2019-05-20T00:19:14.771Z,9.00
2019-05-20T00:21:44.214Z,9.27
2019-05-20T00:24:13.545Z,8.27
2019-05-20T00:26:42.963Z,8.37
2019-05-20T00:29:12.408Z,8.47
2019-05-20T00:31:41.805Z,9.30
2019-05-20T00:34:10.904Z,9.03
2019-05-20T00:36:40.231Z,9.33
2019-05-20T00:39:14.390Z,8.10
2019-05-20T00:41:43.787Z,8.53
2019-05-20T00:44:13.173Z,9.43
2019-05-20T00:46:42.627Z,8.50
2019-05-20T00:49:11.995Z,9.30
2019-05-20T00:51:41.158Z,9.47
2019-05-20T00:54:10.452Z,8.47
2019-05-20T00:56:39.861Z,9.30
2019-05-20T00:59:09.330Z,8.90
2019-05-20T01:01:38.717Z,8.73
2019-05-20T01:04:08.132Z,9.03
2019-05-20T01:06:37.590Z,9.03
2019-05-20T01:10:29.161Z,9.17
2019-05-20T01:12:58.599Z,8.37
2019-05-20T01:15:27.937Z,9.17
2019-05-20T01:17:57.287Z,8.77
2019-05-20T01:20:26.371Z,9.67
2019-05-20T01:22:56.271Z,9.63
2019-05-20T01:25:25.720Z,8.67
2019-05-20T01:27:55.172Z,9.77
2019-05-20T01:30:24.563Z,8.57
2019-05-20T01:32:53.677Z,8.73
2019-05-20T01:35:23.061Z,10.83
2019-05-20T01:37:52.251Z,9.50
2019-05-20T01:40:21.574Z,9.20
2019-05-20T01:42:50.921Z,8.83
2019-05-20T01:45:20.330Z,9.17
2019-05-20T01:47:49.713Z,10.00
2019-05-20T01:50:18.835Z,9.47
2019-05-20T01:52:47.915Z,10.43
2019-05-20T01:55:17.416Z,10.37
2019-05-20T01:57:46.908Z,10.43
2019-05-20T02:00:16.064Z,10.67
2019-05-20T02:02:45.223Z,11.43
2019-05-20T02:05:17.956Z,10.07
2019-05-20T02:10:32.135Z,10.83
2019-05-20T02:13:01.448Z,10.77
2019-05-20T02:15:32.235Z,11.40
2019-05-20T02:18:01.514Z,10.17
2019-05-20T02:20:30.884Z,11.93
2019-05-20T02:23:16.212Z,11.03
2019-05-20T02:25:47.010Z,11.13
2019-05-20T02:28:16.545Z,10.33
2019-05-20T02:30:45.938Z,11.40
2019-05-20T02:33:15.445Z,11.50
2019-05-20T02:35:44.817Z,10.43
2019-05-20T02:38:20.765Z,10.20
2019-05-20T02:40:52.826Z,11.67
2019-05-20T02:43:22.011Z,11.40
2019-05-20T02:45:51.453Z,12.10
2019-05-20T02:48:20.591Z,9.97
2019-05-20T02:50:49.969Z,9.93
2019-05-20T02:53:19.383Z,9.53
2019-05-20T02:55:49.838Z,10.93
2019-05-20T02:58:19.214Z,9.83
2019-05-20T03:00:48.796Z,11.80
2019-05-20T03:03:18.213Z,8.60
2019-05-20T03:05:47.731Z,12.43
2019-05-20T03:08:23.618Z,10.53
2019-05-20T03:10:55.765Z,9.23
2019-05-20T03:13:25.157Z,13.70
2019-05-20T03:15:54.657Z,9.57
2019-05-20T03:18:24.210Z,10.03
2019-05-20T03:20:53.709Z,10.03
2019-05-20T03:23:23.071Z,12.57
2019-05-20T03:25:52.540Z,8.60
2019-05-20T03:28:21.972Z,9.53
2019-05-20T03:30:51.333Z,9.43
2019-05-20T03:33:20.520Z,9.77
2019-05-20T03:35:51.892Z,9.73
2019-05-20T03:38:21.615Z,10.60
2019-05-20T03:40:57.410Z,10.43
2019-05-20T03:43:28.071Z,10.90
2019-05-20T03:45:57.568Z,15.20
2019-05-20T03:48:27.353Z,10.67
2019-05-20T03:50:56.769Z,9.97
2019-05-20T03:53:26.192Z,11.50
2019-05-20T03:55:55.584Z,10.53
2019-05-20T03:58:24.726Z,9.73
2019-05-20T04:00:53.895Z,10.67
2019-05-20T04:03:23.259Z,12.40
2019-05-20T04:05:52.431Z,14.33
2019-05-20T04:08:21.509Z,10.87
2019-05-20T04:10:50.821Z,12.53
2019-05-20T04:13:20.008Z,16.93
2019-05-20T04:15:51.272Z,16.53
2019-05-20T04:18:24.343Z,12.47
2019-05-20T04:20:56.459Z,12.70
2019-05-20T04:23:25.655Z,17.00
2019-05-20T04:25:55.008Z,14.17
2019-05-20T04:30:37.872Z,15.30
2019-05-20T04:33:07.337Z,13.03
2019-05-20T04:35:36.706Z,20.17
2019-05-20T04:38:06.144Z,16.63
2019-05-20T04:40:35.611Z,14.13
2019-05-20T04:43:04.993Z,19.17
2019-05-20T04:45:49.359Z,16.13
2019-05-20T04:48:20.781Z,17.87
2019-05-20T04:50:50.331Z,13.53
2019-05-20T04:53:19.708Z,14.17
2019-05-20T04:55:49.055Z,20.47
2019-05-20T04:58:18.237Z,18.13
2019-05-20T05:00:50.786Z,17.90
2019-05-20T05:03:20.392Z,13.60
2019-05-20T05:05:50.528Z,14.37
2019-05-20T05:08:20.029Z,15.87
2019-05-20T05:10:49.463Z,14.03
2019-05-20T05:13:18.933Z,16.13
2019-05-20T05:15:48.317Z,15.10
2019-05-20T05:18:17.681Z,12.97
2019-05-20T05:20:46.947Z,17.87
2019-05-20T05:23:16.419Z,13.50
2019-05-20T05:25:45.876Z,17.47
2019-05-20T05:28:15.260Z,18.23
2019-05-20T05:30:44.707Z,14.10
2019-05-20T05:33:14.176Z,17.43
2019-05-20T05:35:52.935Z,16.33
2019-05-20T05:38:14.649Z,15.13
2019-05-20T05:40:44.029Z,17.63
2019-05-20T05:43:13.404Z,14.77
2019-05-20T05:45:42.799Z,17.73
2019-05-20T05:48:11.887Z,14.57
2019-05-20T05:50:41.222Z,14.30
2019-05-20T05:53:10.383Z,16.67
2019-05-20T05:55:39.413Z,16.57
2019-05-20T05:58:09.095Z,13.57
2019-05-20T06:00:38.587Z,14.80
2019-05-20T06:03:08.054Z,18.50
2019-05-20T06:05:37.412Z,16.10
2019-05-20T06:08:07.956Z,15.90
2019-05-20T06:10:37.330Z,21.43
2019-05-20T06:13:06.806Z,12.73
2019-05-20T06:15:36.245Z,17.77
2019-05-20T06:18:38.992Z,13.90
2019-05-20T06:21:08.326Z,18.67
2019-05-20T06:23:37.689Z,17.53
2019-05-20T06:26:07.120Z,17.10
2019-05-20T06:28:36.517Z,15.90
2019-05-20T06:31:05.943Z,15.13
2019-05-20T06:33:35.303Z,16.30
2019-05-20T06:36:04.758Z,16.77
2019-05-20T06:38:35.781Z,15.83
2019-05-20T06:41:07.136Z,20.43
2019-05-20T06:43:36.245Z,15.77
2019-05-20T06:46:05.274Z,17.20
2019-05-20T06:48:34.588Z,17.90
2019-05-20T06:51:03.946Z,18.17
2019-05-20T06:53:33.391Z,19.20
2019-05-20T06:56:02.939Z,16.47
2019-05-20T06:58:32.385Z,17.47
2019-05-20T07:01:01.721Z,22.40
2019-05-20T07:03:30.887Z,24.53
2019-05-20T07:06:00.232Z,23.13
2019-05-20T07:08:29.629Z,23.43
2019-05-20T07:10:58.783Z,22.43
2019-05-20T07:13:27.808Z,18.23
2019-05-20T07:15:57.991Z,30.33
2019-05-20T07:18:27.633Z,29.53
2019-05-20T07:20:57.091Z,35.60
2019-05-20T07:23:26.376Z,37.70
2019-05-20T07:25:55.864Z,28.80
2019-05-20T07:28:25.255Z,26.93
2019-05-20T07:30:54.692Z,29.70
2019-05-20T07:33:24.062Z,29.70
2019-05-20T07:35:53.529Z,26.30
2019-05-20T07:38:22.951Z,25.43
2019-05-20T07:40:52.318Z,21.50
2019-05-20T07:43:21.663Z,23.57
2019-05-20T07:45:50.951Z,27.90
2019-05-20T07:48:20.460Z,28.57
2019-05-20T07:50:49.877Z,20.50
2019-05-20T07:53:19.249Z,19.43
2019-05-20T07:58:40.868Z,20.13
2019-05-20T08:01:10.280Z,24.57
2019-05-20T08:03:39.833Z,26.43
2019-05-20T08:06:08.965Z,26.70
2019-05-20T08:08:38.216Z,23.50
2019-05-20T08:11:07.695Z,17.73
2019-05-20T08:13:37.066Z,20.17
2019-05-20T08:16:06.474Z,21.47
2019-05-20T08:18:36.949Z,24.43
2019-05-20T08:21:06.371Z,23.07
2019-05-20T08:23:35.918Z,27.53
2019-05-20T08:26:05.343Z,22.67
2019-05-20T08:28:35.465Z,24.87
2019-05-20T08:31:04.674Z,21.63
2019-05-20T08:33:33.726Z,25.37
2019-05-20T08:36:03.196Z,23.10
2019-05-20T08:38:32.440Z,23.53
2019-05-20T08:41:01.879Z,20.63
2019-05-20T08:43:31.436Z,20.93
2019-05-20T08:46:00.605Z,23.83
2019-05-20T08:48:29.885Z,21.53
2019-05-20T08:50:59.284Z,26.37
2019-05-20T08:53:29.085Z,20.70
2019-05-20T08:55:59.090Z,19.20
2019-05-20T08:58:28.454Z,23.03
2019-05-20T09:00:57.920Z,17.33
2019-05-20T09:03:30.316Z,21.80
2019-05-20T09:05:58.258Z,18.07
2019-05-20T09:08:27.351Z,17.40
2019-05-20T09:10:56.625Z,16.97
2019-05-20T09:13:26.276Z,14.77
2019-05-20T09:15:55.911Z,16.03
2019-05-20T09:18:25.353Z,13.97
2019-05-20T09:20:54.798Z,16.43
2019-05-20T09:23:24.165Z,13.83
2019-05-20T09:25:53.686Z,14.40
2019-05-20T09:28:23.174Z,12.73
2019-05-20T09:30:52.812Z,13.67
2019-05-20T09:34:45.085Z,13.37
2019-05-20T09:37:14.555Z,14.30
2019-05-20T09:39:44.006Z,13.83
2019-05-20T09:42:13.205Z,19.57
2019-05-20T09:44:42.599Z,18.93
2019-05-20T09:47:12.100Z,17.90
2019-05-20T09:49:41.342Z,22.07
2019-05-20T09:52:10.717Z,20.03
2019-05-20T09:54:40.134Z,16.37
2019-05-20T09:57:09.679Z,14.40
2019-05-20T09:59:43.386Z,15.60
2019-05-20T10:02:10.143Z,22.17
2019-05-20T10:04:39.784Z,19.40
2019-05-20T10:07:09.240Z,15.27
2019-05-20T10:09:38.437Z,18.47
2019-05-20T10:12:07.546Z,15.10
2019-05-20T10:14:36.676Z,15.00
2019-05-20T10:17:06.008Z,18.90
2019-05-20T10:19:35.487Z,22.43
2019-05-20T10:22:04.918Z,17.20
2019-05-20T10:24:34.433Z,19.43
2019-05-20T10:27:03.858Z,24.00
2019-05-20T10:29:33.293Z,28.30
2019-05-20T10:32:05.295Z,19.90
2019-05-20T10:34:37.239Z,18.10
2019-05-20T10:37:05.752Z,20.90
2019-05-20T10:39:34.863Z,16.20
2019-05-20T10:42:04.224Z,22.13
2019-05-20T10:44:33.644Z,17.37
2019-05-20T10:47:03.073Z,17.93
2019-05-20T10:49:32.471Z,13.30
2019-05-20T10:52:02.338Z,15.10
2019-05-20T10:54:31.792Z,12.83
2019-05-20T10:57:01.160Z,13.10
2019-05-20T10:59:30.528Z,12.37
2019-05-20T11:01:59.879Z,12.20
2019-05-20T11:04:29.339Z,12.23
2019-05-20T11:06:58.743Z,9.97
2019-05-20T11:09:28.133Z,9.20
2019-05-20T11:11:57.446Z,8.73
2019-05-20T11:14:26.966Z,5.83
2019-05-20T11:16:56.377Z,4.83
2019-05-20T11:19:25.523Z,8.40
2019-05-20T11:21:55.156Z,6.87
2019-05-20T11:24:24.473Z,4.07
2019-05-20T11:26:53.924Z,3.20
2019-05-20T11:29:23.065Z,3.53
2019-05-20T11:31:52.335Z,3.43
2019-05-20T11:34:21.523Z,3.83
2019-05-20T11:36:50.482Z,5.53
2019-05-20T11:39:32.710Z,2.90
2019-05-20T11:41:53.954Z,2.73
2019-05-20T11:44:21.751Z,2.17
2019-05-20T11:46:51.192Z,2.60
2019-05-20T11:49:20.539Z,3.80
2019-05-20T11:51:49.905Z,2.70
2019-05-20T11:54:19.123Z,2.37
2019-05-20T11:56:48.455Z,3.70
2019-05-20T11:59:18.023Z,2.97
2019-05-20T12:02:48.538Z,3.37
2019-05-20T12:05:17.807Z,4.67
2019-05-20T12:07:47.053Z,2.57
2019-05-20T12:10:16.548Z,2.93
2019-05-20T12:12:46.309Z,6.47
2019-05-20T12:15:17.253Z,4.90
2019-05-20T12:17:46.510Z,3.80
2019-05-20T12:20:15.903Z,4.60
2019-05-20T12:22:45.247Z,3.60
2019-05-20T12:26:49.671Z,6.83
2019-05-20T12:29:19.321Z,5.77
2019-05-20T12:31:48.633Z,5.57
2019-05-20T12:34:18.019Z,6.90
2019-05-20T12:36:47.466Z,6.03
2019-05-20T12:39:16.734Z,8.27
2019-05-20T12:41:46.045Z,4.97
2019-05-20T12:44:15.489Z,7.20
2019-05-20T12:46:44.898Z,7.00
2019-05-20T12:49:14.149Z,4.03
2019-05-20T12:51:44.809Z,6.47
2019-05-20T12:54:13.993Z,4.53
2019-05-20T12:56:43.250Z,4.23
2019-05-20T12:59:12.730Z,5.70
2019-05-20T13:01:42.101Z,6.20
2019-05-20T13:04:11.621Z,5.37
2019-05-20T13:06:40.997Z,4.97
2019-05-20T13:09:10.349Z,4.20
2019-05-20T13:11:39.695Z,4.90
2019-05-20T13:14:09.387Z,6.53
2019-05-20T13:16:38.799Z,4.03
2019-05-20T13:19:08.255Z,4.17
2019-05-20T13:21:37.495Z,3.93
2019-05-20T13:26:53.082Z,3.97
2019-05-20T13:29:22.643Z,4.23
2019-05-20T13:31:52.265Z,3.50
2019-05-20T13:34:22.374Z,9.00
2019-05-20T13:36:51.904Z,6.87
2019-05-20T13:39:21.331Z,5.97
2019-05-20T13:41:50.898Z,3.60
2019-05-20T13:44:20.660Z,3.30
2019-05-20T13:46:50.239Z,4.33
2019-05-20T13:49:19.624Z,3.27
2019-05-20T13:51:48.796Z,3.40
2019-05-20T13:54:18.225Z,2.90
2019-05-20T13:56:47.639Z,5.73
2019-05-20T13:59:16.781Z,3.10
2019-05-20T14:01:45.821Z,4.90
2019-05-20T14:04:14.990Z,3.37
2019-05-20T14:06:44.297Z,3.03
2019-05-20T14:09:13.716Z,5.63
2019-05-20T14:11:43.080Z,2.50
2019-05-20T14:14:14.326Z,3.73
2019-05-20T14:16:43.509Z,3.83
2019-05-20T14:19:12.875Z,4.83
2019-05-20T14:21:42.356Z,2.47
2019-05-20T14:24:11.489Z,5.50
2019-05-20T14:26:40.545Z,3.97
2019-05-20T14:29:10.077Z,4.50
2019-05-20T14:31:39.512Z,4.47
2019-05-20T14:34:09.058Z,2.27
2019-05-20T14:36:40.365Z,1.80
2019-05-20T14:39:09.583Z,3.47
2019-05-20T14:41:38.948Z,2.90
2019-05-20T14:44:09.989Z,2.00
2019-05-20T14:46:39.426Z,2.73
2019-05-20T14:49:08.852Z,4.63
2019-05-20T14:51:38.306Z,6.60
2019-05-20T14:54:07.520Z,7.67
2019-05-20T14:56:36.855Z,3.43
2019-05-20T14:59:06.298Z,4.13
2019-05-20T15:01:35.647Z,5.03
2019-05-20T15:04:05.043Z,5.43
2019-05-20T15:06:34.569Z,3.03
2019-05-20T15:09:05.365Z,3.30
2019-05-20T15:11:38.070Z,5.80
2019-05-20T15:14:05.721Z,5.03
2019-05-20T15:16:35.070Z,5.50
2019-05-20T15:19:04.203Z,3.97
2019-05-20T15:21:33.533Z,2.97
2019-05-20T15:24:03.009Z,2.57
2019-05-20T15:26:32.456Z,3.17
2019-05-20T15:29:02.088Z,2.50
2019-05-20T15:31:33.302Z,2.53
2019-05-20T15:34:02.844Z,5.03
2019-05-20T15:36:33.353Z,3.57
2019-05-20T15:39:05.182Z,3.67
2019-05-20T15:41:34.467Z,6.87
2019-05-20T15:44:04.780Z,5.63
2019-05-20T15:46:34.234Z,2.30
2019-05-20T15:49:03.568Z,2.30
2019-05-20T15:51:32.986Z,2.70
2019-05-20T15:54:02.503Z,1.97
2019-05-20T15:56:31.652Z,3.23
2019-05-20T15:59:00.932Z,1.50
2019-05-20T16:01:31.424Z,1.63
2019-05-20T16:06:42.970Z,2.43
2019-05-20T16:09:16.762Z,2.77
2019-05-20T16:11:43.276Z,2.90
2019-05-20T16:14:12.572Z,3.13
2019-05-20T16:16:41.687Z,5.43
2019-05-20T16:19:10.960Z,4.70
2019-05-20T16:21:40.359Z,3.00
2019-05-20T16:24:11.731Z,4.53
2019-05-20T16:26:41.085Z,6.60
2019-05-20T16:29:11.801Z,3.83
2019-05-20T16:31:41.211Z,5.07
2019-05-20T16:34:10.682Z,5.27
2019-05-20T16:36:40.128Z,3.80
2019-05-20T16:39:10.187Z,4.43
2019-05-20T16:41:39.310Z,3.40
2019-05-20T16:44:08.563Z,3.50
2019-05-20T16:46:55.733Z,2.70
2019-05-20T16:49:25.073Z,4.70
2019-05-20T16:51:54.556Z,3.23
2019-05-20T16:54:23.971Z,3.40
2019-05-20T16:56:53.359Z,4.10
2019-05-20T17:00:34.769Z,1.60
2019-05-20T17:03:04.136Z,4.17
2019-05-20T17:05:33.628Z,2.23
2019-05-20T17:08:02.995Z,2.87
2019-05-20T17:10:32.399Z,1.37
2019-05-20T17:13:01.526Z,1.17
2019-05-20T17:15:30.785Z,2.07
2019-05-20T17:18:00.449Z,1.50
2019-05-20T17:20:29.809Z,1.47
2019-05-20T17:22:59.347Z,2.50
2019-05-20T17:25:28.849Z,1.40
2019-05-20T17:27:58.175Z,1.63
2019-05-20T17:30:27.665Z,4.40
2019-05-20T17:32:57.005Z,2.97
2019-05-20T17:35:26.357Z,1.70
2019-05-20T17:37:55.967Z,3.83
2019-05-20T17:40:25.255Z,1.67
2019-05-20T17:42:54.371Z,2.03
2019-05-20T17:45:23.628Z,1.87
2019-05-20T17:47:52.970Z,1.87
2019-05-20T17:50:22.486Z,3.73
2019-05-20T17:52:51.887Z,3.07
2019-05-20T17:55:21.174Z,5.53
2019-05-20T17:58:57.992Z,5.60
2019-05-20T18:01:27.418Z,6.70
2019-05-20T18:03:56.831Z,6.03
2019-05-20T18:06:26.156Z,7.30
2019-05-20T18:08:57.023Z,3.57
2019-05-20T18:11:26.533Z,4.53
2019-05-20T18:13:55.839Z,7.47
2019-05-20T18:16:25.045Z,2.20
2019-05-20T18:18:54.391Z,3.37
2019-05-20T18:21:23.744Z,1.37
2019-05-20T18:23:53.288Z,2.03
2019-05-20T18:26:22.679Z,0.97
2019-05-20T18:28:52.063Z,1.30
2019-05-20T18:31:31.712Z,1.17
2019-05-20T18:33:52.467Z,1.33
2019-05-20T18:36:21.951Z,2.50
2019-05-20T18:38:51.385Z,0.70
2019-05-20T18:41:20.847Z,0.73
2019-05-20T18:43:50.269Z,0.60
2019-05-20T18:46:19.531Z,0.90
2019-05-20T18:48:48.908Z,0.77
2019-05-20T18:51:18.258Z,1.33
2019-05-20T18:53:47.655Z,2.73
2019-05-20T18:56:17.620Z,3.47
2019-05-20T18:58:46.916Z,1.20
2019-05-20T19:01:19.421Z,0.93
2019-05-20T19:03:47.270Z,0.87
2019-05-20T19:06:16.347Z,0.70
2019-05-20T19:08:45.673Z,0.70
2019-05-20T19:11:14.818Z,1.13
2019-05-20T19:13:44.243Z,0.90
2019-05-20T19:16:13.364Z,0.97
2019-05-20T19:18:58.946Z,0.70
2019-05-20T19:21:28.302Z,1.30
2019-05-20T19:23:57.675Z,1.13
2019-05-20T19:26:27.159Z,2.43
2019-05-20T19:28:56.676Z,3.50
2019-05-20T19:31:26.055Z,0.73
2019-05-20T19:33:55.419Z,1.37
2019-05-20T19:36:24.512Z,0.93
2019-05-20T19:38:53.771Z,1.03
2019-05-20T19:41:23.117Z,0.87
2019-05-20T19:43:52.474Z,0.80
2019-05-20T19:46:21.884Z,3.40
2019-05-20T19:48:51.095Z,0.87
2019-05-20T19:51:20.354Z,3.43
2019-05-20T19:53:49.717Z,2.50
2019-05-20T19:56:19.168Z,1.83
2019-05-20T19:58:49.579Z,7.37
2019-05-20T20:01:18.733Z,1.73
2019-05-20T20:03:48.278Z,2.77
2019-05-20T20:06:17.861Z,3.07
2019-05-20T20:08:47.036Z,2.13
2019-05-20T20:11:16.342Z,1.10
2019-05-20T20:13:45.465Z,2.40
2019-05-20T20:16:17.881Z,2.60
2019-05-20T20:18:45.754Z,1.77
2019-05-20T20:21:15.119Z,0.93
2019-05-20T20:23:44.543Z,1.83
2019-05-20T20:26:14.131Z,1.10
2019-05-20T20:28:43.427Z,1.70
2019-05-20T20:31:12.626Z,2.00
2019-05-20T20:33:41.930Z,2.20
2019-05-20T20:36:11.202Z,1.40
2019-05-20T20:38:40.867Z,1.53
2019-05-20T20:41:10.252Z,0.90
2019-05-20T20:43:39.566Z,2.13
2019-05-20T20:46:08.980Z,1.20
2019-05-20T20:48:38.222Z,2.93
2019-05-20T20:51:07.502Z,4.30
2019-05-20T20:53:36.629Z,0.90
2019-05-20T20:56:05.820Z,0.90
2019-05-20T20:58:35.269Z,0.90
2019-05-20T21:01:04.650Z,1.03
2019-05-20T21:03:34.208Z,0.60
2019-05-20T21:06:03.547Z,0.93
2019-05-20T21:08:32.919Z,0.60
2019-05-20T21:11:02.012Z,0.80
2019-05-20T21:13:31.355Z,0.60
2019-05-20T21:16:00.851Z,4.13
2019-05-20T21:18:29.985Z,0.60
2019-05-20T21:20:59.081Z,0.67
2019-05-20T21:23:28.348Z,0.80
2019-05-20T21:25:57.710Z,1.60
2019-05-20T21:28:27.181Z,0.70
2019-05-20T21:30:56.265Z,2.00
2019-05-20T21:35:05.573Z,1.97
2019-05-20T21:37:34.764Z,1.03
2019-05-20T21:40:04.943Z,0.70
2019-05-20T21:42:34.299Z,1.70
2019-05-20T21:45:05.346Z,0.93
2019-05-20T21:47:34.411Z,1.53
2019-05-20T21:50:03.778Z,0.90
2019-05-20T21:52:33.140Z,1.80
2019-05-20T21:55:02.581Z,0.80
2019-05-20T21:57:31.961Z,0.83
2019-05-20T22:00:01.322Z,2.67
2019-05-20T22:02:31.296Z,0.93
2019-05-20T22:05:00.647Z,1.13
2019-05-20T22:07:30.028Z,2.77
2019-05-20T22:09:59.455Z,0.80
2019-05-20T22:12:29.815Z,4.53
2019-05-20T22:14:58.942Z,0.80
2019-05-20T22:17:27.913Z,0.80
2019-05-20T22:19:57.108Z,0.90
2019-05-20T22:22:36.987Z,1.60
2019-05-20T22:25:06.187Z,1.10
2019-05-20T22:27:35.461Z,0.90
2019-05-20T22:30:05.976Z,1.43
2019-05-20T22:32:35.227Z,1.73
2019-05-20T22:35:07.326Z,1.73
2019-05-20T22:37:37.366Z,2.20
2019-05-20T22:40:07.469Z,2.07
2019-05-20T22:42:36.552Z,1.23
2019-05-20T22:45:06.323Z,1.27
2019-05-20T22:47:35.626Z,1.13
2019-05-20T22:50:05.780Z,1.43
2019-05-20T22:52:35.008Z,2.73
2019-05-20T22:55:04.703Z,2.77
2019-05-20T22:57:35.057Z,3.33
2019-05-20T23:00:05.062Z,1.80
2019-05-20T23:02:35.705Z,6.57
2019-05-20T23:05:05.053Z,1.57
2019-05-20T23:07:34.401Z,1.27
2019-05-20T23:10:05.440Z,0.90
2019-05-20T23:12:34.572Z,2.43
2019-05-20T23:15:04.874Z,0.93
2019-05-20T23:17:34.162Z,1.20
2019-05-20T23:20:04.248Z,2.57
2019-05-20T23:22:33.258Z,3.03
2019-05-20T23:25:02.612Z,2.90
2019-05-20T23:27:31.697Z,0.97
2019-05-20T23:30:02.062Z,1.23
2019-05-20T23:32:31.613Z,0.87
2019-05-20T23:35:00.974Z,1.13
2019-05-20T23:37:30.315Z,1.00
2019-05-20T23:39:59.531Z,1.33
2019-05-20T23:42:28.975Z,1.20
2019-05-20T23:44:58.163Z,2.13
2019-05-20T23:47:27.461Z,1.00
2019-05-20T23:51:08.722Z,1.30
2019-05-20T23:53:38.008Z,1.70
2019-05-20T23:56:07.402Z,1.60
2019-05-20T23:58:36.969Z,1.20
